KAVXKOXR

Guest
Details From KAVX - Catalina
To KOXR - Oxnard
Flight Number -
Tags generated
Created
Modified
Stats Distance 62 nm / 115 km
Max Altitude 7,700 ft / 2,347 m
Waypoints 4
Social Downloads 0
Likes 0
Share VATSIM

Download

Looking for another format? Having issues loading an existing format? Contact us
Advertisement - Login to hide

Notes

Basic altitude profile: - Ascent Rate: 2500ft/min - Ascent Speed: 250kts - Cruise Altitude: 35000ft - Cruise Speed: 420kts - Descent Rate: 1500ft/min - Descent Speed: 250kts Options: - Use NATs: yes - Use PACOTS: yes - Use low airways: yes - Use high airways: yes

Route

KAVX PAROL V27 DOYLE KOXR

ID Type Via Altitude Latitude Longitude Leg Dist Tot Dist Heading (true) Name
O KAVX APT - 0 ft / 0 m 33.40466˚ -118.41588˚ - 0 nm - Catalina
PAROL FIX - 5,300 ft / 1,615 m 33.59606˚ -118.60494˚ 14 nm 14 nm 321° / 320° -
DOYLE FIX V27 (AWY-LO) 7,700 ft / 2,347 m 33.74199˚ -118.73036˚ 10 nm 25 nm 324° / 324° -
O KOXR APT - 0 ft / 0 m 34.20082˚ -119.20723˚ 36 nm 62 nm 319° / 319° Oxnard

Altitude Profile

Advertisement - Login to hide

KAVX

Details ICAO KAVX (AVX)
Name Catalina
Region United States
Timezone America/Los_Angeles (UTC-8.0)
Stats Elevation 1,601 ft / 488 m (AMSL)
Location 33.404656° -118.415880°
Runways 1
Magnetic Variation 11.901° E

METAR

KAVX 132351Z AUTO 24005KT 10SM CLR 23/M16 A2999 RMK AO2 SLP132 T02331161 10267 20228 56006

Decode

TAF

Not found

Departure Runways

ID Width Length Bearing (true) Bearing (mag) Surface Threshold Offset Overrun Length
04 59 ft / 18 m 3,127 ft / 953 m 54.93° 43.03° Asphalt 131 ft / 40 m 0 ft / 0 m
22 59 ft / 18 m 3,127 ft / 953 m 234.93° 223.03° Asphalt 62 ft / 19 m 0 ft / 0 m

KOXR

Details ICAO KOXR (OXR)
Name Oxnard
Region United States
Timezone America/Los_Angeles (UTC-8.0)
Stats Elevation 43 ft / 13 m (AMSL)
Location 34.200819° -119.207233°
Runways 1
Magnetic Variation 12.211° E

METAR

KOXR 132351Z AUTO 24004KT 4SM HZ FU CLR 19/08 A2992 RMK AO2 SLP132 T01940078 10256 20194 56008

Decode

TAF

TAF KOXR 132330Z 1400/1424 26007KT 4SM HZ FU SKC FM140300 VRB03KT 6SM FU SKC FM141300 05007KT 6SM FU SKC FM141600 05015G20KT P6SM SKC FM142300 05010KT P6SM SKC

Decode

Destination Runways

ID Width Length Bearing (true) Bearing (mag) Surface Threshold Offset Overrun Length
07 98 ft / 30 m 5,953 ft / 1,815 m 90.53° 78.32° Asphalt 0 ft / 0 m 0 ft / 0 m
25 98 ft / 30 m 5,953 ft / 1,815 m 270.54° 258.33° Asphalt 1,378 ft / 420 m 0 ft / 0 m

Approach Navaids

Runway Type Ident Frequency Range Bearing (true) Bearing (mag) Slope Elevation
25 Localiser IOXR 108.70 MHz 18 nm / 33 km 270.48° 258.26° - 28 ft / 9 m (AMSL)
25 Glidescope IOXR 108.70 MHz 10 nm / 19 km 270.53° 258.32° 3.00° 41 ft / 12 m (AMSL)

Popular Alternatives